sensor_id;sensor_type;location;lat;lon;timestamp;P1;durP1;ratioP1;P2;durP2;ratioP2
74383;SDS011;62824;52.994;-3.936;2023-06-24T00:01:15;7.50;;;3.70;;
74383;SDS011;62824;52.994;-3.936;2023-06-24T00:03:41;8.38;;;3.78;;
74383;SDS011;62824;52.994;-3.936;2023-06-24T00:06:11;7.80;;;3.60;;
74383;SDS011;62824;52.994;-3.936;2023-06-24T00:08:46;8.98;;;3.92;;
74383;SDS011;62824;52.994;-3.936;2023-06-24T00:11:15;8.77;;;4.28;;
74383;SDS011;62824;52.994;-3.936;2023-06-24T00:13:42;12.15;;;4.57;;
74383;SDS011;62824;52.994;-3.936;2023-06-24T00:16:08;10.88;;;4.75;;
74383;SDS011;62824;52.994;-3.936;2023-06-24T00:18:35;8.90;;;4.25;;
74383;SDS011;62824;52.994;-3.936;2023-06-24T00:21:02;11.10;;;4.70;;
74383;SDS011;62824;52.994;-3.936;2023-06-24T00:23:29;8.07;;;3.60;;
74383;SDS011;62824;52.994;-3.936;2023-06-24T00:25:59;8.38;;;3.55;;
74383;SDS011;62824;52.994;-3.936;2023-06-24T00:28:25;6.28;;;2.92;;
74383;SDS011;62824;52.994;-3.936;2023-06-24T00:30:52;7.70;;;3.35;;
74383;SDS011;62824;52.994;-3.936;2023-06-24T00:33:18;5.65;;;3.22;;
74383;SDS011;62824;52.994;-3.936;2023-06-24T00:35:47;8.02;;;3.42;;
74383;SDS011;62824;52.994;-3.936;2023-06-24T00:38:13;7.30;;;3.75;;
74383;SDS011;62824;52.994;-3.936;2023-06-24T00:40:39;9.80;;;4.00;;
74383;SDS011;62824;52.994;-3.936;2023-06-24T00:43:05;9.57;;;4.05;;
74383;SDS011;62824;52.994;-3.936;2023-06-24T00:45:31;6.40;;;4.03;;
74383;SDS011;62824;52.994;-3.936;2023-06-24T00:47:58;10.77;;;3.80;;
74383;SDS011;62824;52.994;-3.936;2023-06-24T00:50:24;8.65;;;3.65;;
74383;SDS011;62824;52.994;-3.936;2023-06-24T00:52:50;9.20;;;3.90;;
74383;SDS011;62824;52.994;-3.936;2023-06-24T00:55:16;7.45;;;3.30;;
74383;SDS011;62824;52.994;-3.936;2023-06-24T00:57:46;7.38;;;3.13;;
74383;SDS011;62824;52.994;-3.936;2023-06-24T01:00:17;7.07;;;3.38;;
74383;SDS011;62824;52.994;-3.936;2023-06-24T01:02:46;12.55;;;3.85;;
74383;SDS011;62824;52.994;-3.936;2023-06-24T01:05:13;7.75;;;3.25;;
74383;SDS011;62824;52.994;-3.936;2023-06-24T01:07:39;3.65;;;2.47;;
74383;SDS011;62824;52.994;-3.936;2023-06-24T01:10:06;7.55;;;3.10;;
74383;SDS011;62824;52.994;-3.936;2023-06-24T01:12:37;8.10;;;3.00;;
74383;SDS011;62824;52.994;-3.936;2023-06-24T01:15:04;5.53;;;2.80;;
74383;SDS011;62824;52.994;-3.936;2023-06-24T01:26:21;3.45;;;2.40;;
74383;SDS011;62824;52.994;-3.936;2023-06-24T01:36:59;7.63;;;3.65;;
74383;SDS011;62824;52.994;-3.936;2023-06-24T01:39:29;7.53;;;3.08;;
74383;SDS011;62824;52.994;-3.936;2023-06-24T01:42:03;6.47;;;3.30;;
74383;SDS011;62824;52.994;-3.936;2023-06-24T01:44:35;5.00;;;3.20;;
74383;SDS011;62824;52.994;-3.936;2023-06-24T01:47:03;7.88;;;3.75;;
74383;SDS011;62824;52.994;-3.936;2023-06-24T01:49:32;7.90;;;4.50;;
74383;SDS011;62824;52.994;-3.936;2023-06-24T01:52:03;8.82;;;4.00;;
74383;SDS011;62824;52.994;-3.936;2023-06-24T01:54:32;6.93;;;3.70;;
74383;SDS011;62824;52.994;-3.936;2023-06-24T01:57:00;7.80;;;3.90;;
74383;SDS011;62824;52.994;-3.936;2023-06-24T01:59:29;7.50;;;4.25;;
74383;SDS011;62824;52.994;-3.936;2023-06-24T02:01:55;9.07;;;4.43;;
74383;SDS011;62824;52.994;-3.936;2023-06-24T02:04:23;7.90;;;3.35;;
74383;SDS011;62824;52.994;-3.936;2023-06-24T02:06:50;6.78;;;3.90;;
74383;SDS011;62824;52.994;-3.936;2023-06-24T02:09:19;4.93;;;3.20;;
74383;SDS011;62824;52.994;-3.936;2023-06-24T02:11:46;6.90;;;3.55;;
74383;SDS011;62824;52.994;-3.936;2023-06-24T02:14:14;7.70;;;3.85;;
74383;SDS011;62824;52.994;-3.936;2023-06-24T02:16:42;6.50;;;2.65;;
74383;SDS011;62824;52.994;-3.936;2023-06-24T02:19:10;4.03;;;2.30;;
74383;SDS011;62824;52.994;-3.936;2023-06-24T02:21:38;4.70;;;2.53;;
74383;SDS011;62824;52.994;-3.936;2023-06-24T02:24:06;7.20;;;3.10;;
74383;SDS011;62824;52.994;-3.936;2023-06-24T02:26:33;8.30;;;3.50;;
74383;SDS011;62824;52.994;-3.936;2023-06-24T02:29:02;19.58;;;4.60;;
74383;SDS011;62824;52.994;-3.936;2023-06-24T02:31:29;11.60;;;4.40;;
74383;SDS011;62824;52.994;-3.936;2023-06-24T02:33:54;8.48;;;3.95;;
74383;SDS011;62824;52.994;-3.936;2023-06-24T02:36:20;7.93;;;3.88;;
74383;SDS011;62824;52.994;-3.936;2023-06-24T02:38:46;14.27;;;4.47;;
74383;SDS011;62824;52.994;-3.936;2023-06-24T02:41:12;10.10;;;4.75;;
74383;SDS011;62824;52.994;-3.936;2023-06-24T02:43:38;9.77;;;4.38;;
74383;SDS011;62824;52.994;-3.936;2023-06-24T02:46:04;9.75;;;4.18;;
74383;SDS011;62824;52.994;-3.936;2023-06-24T02:48:31;8.73;;;4.18;;
74383;SDS011;62824;52.994;-3.936;2023-06-24T02:51:00;9.63;;;5.13;;
74383;SDS011;62824;52.994;-3.936;2023-06-24T02:53:27;9.02;;;4.68;;
74383;SDS011;62824;52.994;-3.936;2023-06-24T02:55:54;9.00;;;4.43;;
74383;SDS011;62824;52.994;-3.936;2023-06-24T02:58:21;14.75;;;5.10;;
74383;SDS011;62824;52.994;-3.936;2023-06-24T03:00:48;47.58;;;6.68;;
74383;SDS011;62824;52.994;-3.936;2023-06-24T03:03:14;24.27;;;6.10;;
74383;SDS011;62824;52.994;-3.936;2023-06-24T03:05:41;18.38;;;5.43;;
74383;SDS011;62824;52.994;-3.936;2023-06-24T03:08:09;56.35;;;7.53;;
74383;SDS011;62824;52.994;-3.936;2023-06-24T03:10:36;9.60;;;5.13;;
74383;SDS011;62824;52.994;-3.936;2023-06-24T03:13:02;44.67;;;7.13;;
74383;SDS011;62824;52.994;-3.936;2023-06-24T03:15:28;118.50;;;12.40;;
74383;SDS011;62824;52.994;-3.936;2023-06-24T03:17:54;214.80;;;17.30;;
74383;SDS011;62824;52.994;-3.936;2023-06-24T03:20:20;164.60;;;16.40;;
74383;SDS011;62824;52.994;-3.936;2023-06-24T03:22:46;98.88;;;9.90;;
74383;SDS011;62824;52.994;-3.936;2023-06-24T03:25:12;103.18;;;10.48;;
74383;SDS011;62824;52.994;-3.936;2023-06-24T03:27:37;146.88;;;14.15;;
74383;SDS011;62824;52.994;-3.936;2023-06-24T03:30:03;179.70;;;15.18;;
74383;SDS011;62824;52.994;-3.936;2023-06-24T03:32:30;155.50;;;14.90;;
74383;SDS011;62824;52.994;-3.936;2023-06-24T03:34:55;118.10;;;12.60;;
74383;SDS011;62824;52.994;-3.936;2023-06-24T03:37:21;112.35;;;11.65;;
74383;SDS011;62824;52.994;-3.936;2023-06-24T03:39:47;46.90;;;7.20;;
74383;SDS011;62824;52.994;-3.936;2023-06-24T03:42:13;62.78;;;8.45;;
74383;SDS011;62824;52.994;-3.936;2023-06-24T03:44:38;162.27;;;15.02;;
74383;SDS011;62824;52.994;-3.936;2023-06-24T03:47:04;147.50;;;12.75;;
74383;SDS011;62824;52.994;-3.936;2023-06-24T03:49:30;53.38;;;8.35;;
74383;SDS011;62824;52.994;-3.936;2023-06-24T03:51:55;56.30;;;7.82;;
74383;SDS011;62824;52.994;-3.936;2023-06-24T03:54:21;59.33;;;8.93;;
74383;SDS011;62824;52.994;-3.936;2023-06-24T03:56:47;20.02;;;5.80;;
74383;SDS011;62824;52.994;-3.936;2023-06-24T03:59:12;26.25;;;6.25;;
74383;SDS011;62824;52.994;-3.936;2023-06-24T04:01:38;13.35;;;5.97;;
74383;SDS011;62824;52.994;-3.936;2023-06-24T04:04:04;12.95;;;5.20;;
74383;SDS011;62824;52.994;-3.936;2023-06-24T04:06:30;11.38;;;6.00;;
74383;SDS011;62824;52.994;-3.936;2023-06-24T04:08:56;11.32;;;5.32;;
74383;SDS011;62824;52.994;-3.936;2023-06-24T04:11:21;10.15;;;5.68;;
74383;SDS011;62824;52.994;-3.936;2023-06-24T04:13:47;12.68;;;6.00;;
74383;SDS011;62824;52.994;-3.936;2023-06-24T04:16:13;9.57;;;5.10;;
74383;SDS011;62824;52.994;-3.936;2023-06-24T04:18:39;19.23;;;6.20;;
74383;SDS011;62824;52.994;-3.936;2023-06-24T04:21:05;26.08;;;6.68;;
74383;SDS011;62824;52.994;-3.936;2023-06-24T04:23:32;26.35;;;6.25;;
74383;SDS011;62824;52.994;-3.936;2023-06-24T04:25:58;46.40;;;7.22;;
74383;SDS011;62824;52.994;-3.936;2023-06-24T04:28:24;270.75;;;22.00;;
74383;SDS011;62824;52.994;-3.936;2023-06-24T04:30:50;304.15;;;22.83;;
74383;SDS011;62824;52.994;-3.936;2023-06-24T04:33:16;257.77;;;21.05;;
74383;SDS011;62824;52.994;-3.936;2023-06-24T04:35:42;411.45;;;30.42;;
74383;SDS011;62824;52.994;-3.936;2023-06-24T04:38:09;272.25;;;23.42;;
74383;SDS011;62824;52.994;-3.936;2023-06-24T04:40:35;339.38;;;23.52;;
74383;SDS011;62824;52.994;-3.936;2023-06-24T04:43:01;422.63;;;29.65;;
74383;SDS011;62824;52.994;-3.936;2023-06-24T04:45:27;366.90;;;30.42;;
74383;SDS011;62824;52.994;-3.936;2023-06-24T04:47:52;276.92;;;22.80;;
74383;SDS011;62824;52.994;-3.936;2023-06-24T04:50:18;494.92;;;37.75;;
74383;SDS011;62824;52.994;-3.936;2023-06-24T04:52:44;174.70;;;15.13;;
74383;SDS011;62824;52.994;-3.936;2023-06-24T04:55:10;176.23;;;14.75;;
74383;SDS011;62824;52.994;-3.936;2023-06-24T04:57:35;260.42;;;21.45;;
74383;SDS011;62824;52.994;-3.936;2023-06-24T05:00:02;284.45;;;22.05;;
74383;SDS011;62824;52.994;-3.936;2023-06-24T05:02:28;164.90;;;13.70;;
74383;SDS011;62824;52.994;-3.936;2023-06-24T05:04:54;171.30;;;14.30;;
74383;SDS011;62824;52.994;-3.936;2023-06-24T05:07:19;164.32;;;13.70;;
74383;SDS011;62824;52.994;-3.936;2023-06-24T05:09:48;315.15;;;21.40;;
74383;SDS011;62824;52.994;-3.936;2023-06-24T05:12:16;283.75;;;21.95;;
74383;SDS011;62824;52.994;-3.936;2023-06-24T05:14:41;409.05;;;28.58;;
74383;SDS011;62824;52.994;-3.936;2023-06-24T05:17:07;348.75;;;25.20;;
74383;SDS011;62824;52.994;-3.936;2023-06-24T05:19:33;400.85;;;26.67;;
74383;SDS011;62824;52.994;-3.936;2023-06-24T05:21:59;448.90;;;31.60;;
74383;SDS011;62824;52.994;-3.936;2023-06-24T05:24:25;378.67;;;27.70;;
74383;SDS011;62824;52.994;-3.936;2023-06-24T05:26:51;385.38;;;26.35;;
74383;SDS011;62824;52.994;-3.936;2023-06-24T05:29:17;359.05;;;27.25;;
74383;SDS011;62824;52.994;-3.936;2023-06-24T05:31:43;351.35;;;23.88;;
74383;SDS011;62824;52.994;-3.936;2023-06-24T05:34:09;336.55;;;23.70;;
74383;SDS011;62824;52.994;-3.936;2023-06-24T05:36:35;372.88;;;25.77;;
74383;SDS011;62824;52.994;-3.936;2023-06-24T05:39:01;216.57;;;17.70;;
74383;SDS011;62824;52.994;-3.936;2023-06-24T05:41:27;139.00;;;10.88;;
74383;SDS011;62824;52.994;-3.936;2023-06-24T05:44:08;46.78;;;5.22;;
74383;SDS011;62824;52.994;-3.936;2023-06-24T05:46:37;230.18;;;16.92;;
74383;SDS011;62824;52.994;-3.936;2023-06-24T05:49:03;220.70;;;15.35;;
74383;SDS011;62824;52.994;-3.936;2023-06-24T05:51:29;281.20;;;20.33;;
74383;SDS011;62824;52.994;-3.936;2023-06-24T05:53:55;195.10;;;15.18;;
74383;SDS011;62824;52.994;-3.936;2023-06-24T05:56:21;217.18;;;16.90;;
74383;SDS011;62824;52.994;-3.936;2023-06-24T05:58:47;160.02;;;12.02;;
74383;SDS011;62824;52.994;-3.936;2023-06-24T06:01:13;229.40;;;17.20;;
74383;SDS011;62824;52.994;-3.936;2023-06-24T06:03:39;234.25;;;19.02;;
74383;SDS011;62824;52.994;-3.936;2023-06-24T06:06:05;163.35;;;12.32;;
74383;SDS011;62824;52.994;-3.936;2023-06-24T06:08:32;49.40;;;5.10;;
74383;SDS011;62824;52.994;-3.936;2023-06-24T06:10:58;3.97;;;1.80;;
74383;SDS011;62824;52.994;-3.936;2023-06-24T06:13:27;3.90;;;1.60;;
74383;SDS011;62824;52.994;-3.936;2023-06-24T06:15:53;3.47;;;1.80;;
74383;SDS011;62824;52.994;-3.936;2023-06-24T06:18:19;2.25;;;1.45;;
74383;SDS011;62824;52.994;-3.936;2023-06-24T06:20:45;21.08;;;2.42;;
74383;SDS011;62824;52.994;-3.936;2023-06-24T06:23:12;119.15;;;9.32;;
74383;SDS011;62824;52.994;-3.936;2023-06-24T06:25:38;192.63;;;14.52;;
74383;SDS011;62824;52.994;-3.936;2023-06-24T06:28:04;192.15;;;12.48;;
74383;SDS011;62824;52.994;-3.936;2023-06-24T06:30:30;151.95;;;11.13;;
74383;SDS011;62824;52.994;-3.936;2023-06-24T06:32:55;4.45;;;1.65;;
74383;SDS011;62824;52.994;-3.936;2023-06-24T06:38:13;128.65;;;9.73;;
74383;SDS011;62824;52.994;-3.936;2023-06-24T06:40:39;104.95;;;8.30;;
74383;SDS011;62824;52.994;-3.936;2023-06-24T06:43:05;128.43;;;9.73;;
74383;SDS011;62824;52.994;-3.936;2023-06-24T06:45:31;170.40;;;12.95;;
74383;SDS011;62824;52.994;-3.936;2023-06-24T06:47:57;62.20;;;5.60;;
74383;SDS011;62824;52.994;-3.936;2023-06-24T06:50:23;3.97;;;1.90;;
74383;SDS011;62824;52.994;-3.936;2023-06-24T06:52:49;28.50;;;3.53;;
74383;SDS011;62824;52.994;-3.936;2023-06-24T06:55:14;212.40;;;14.73;;
74383;SDS011;62824;52.994;-3.936;2023-06-24T06:57:40;247.38;;;16.38;;
74383;SDS011;62824;52.994;-3.936;2023-06-24T07:00:06;117.82;;;8.68;;
74383;SDS011;62824;52.994;-3.936;2023-06-24T07:02:32;75.20;;;7.32;;
74383;SDS011;62824;52.994;-3.936;2023-06-24T07:04:58;169.23;;;13.65;;
74383;SDS011;62824;52.994;-3.936;2023-06-24T07:07:25;76.57;;;7.95;;
74383;SDS011;62824;52.994;-3.936;2023-06-24T07:09:51;70.45;;;6.97;;
74383;SDS011;62824;52.994;-3.936;2023-06-24T07:12:17;115.10;;;10.63;;
74383;SDS011;62824;52.994;-3.936;2023-06-24T07:14:45;98.88;;;8.95;;
74383;SDS011;62824;52.994;-3.936;2023-06-24T07:17:11;40.65;;;6.72;;
74383;SDS011;62824;52.994;-3.936;2023-06-24T07:19:37;18.13;;;4.88;;
74383;SDS011;62824;52.994;-3.936;2023-06-24T07:22:03;11.60;;;4.57;;
74383;SDS011;62824;52.994;-3.936;2023-06-24T07:24:29;12.70;;;3.78;;
74383;SDS011;62824;52.994;-3.936;2023-06-24T07:26:54;6.30;;;3.63;;
74383;SDS011;62824;52.994;-3.936;2023-06-24T07:29:20;11.60;;;3.67;;
74383;SDS011;62824;52.994;-3.936;2023-06-24T07:31:46;9.00;;;3.75;;
74383;SDS011;62824;52.994;-3.936;2023-06-24T07:34:12;11.18;;;3.83;;
74383;SDS011;62824;52.994;-3.936;2023-06-24T07:36:38;9.23;;;4.18;;
74383;SDS011;62824;52.994;-3.936;2023-06-24T07:39:03;37.38;;;6.10;;
74383;SDS011;62824;52.994;-3.936;2023-06-24T07:41:30;26.33;;;6.13;;
74383;SDS011;62824;52.994;-3.936;2023-06-24T07:43:57;131.32;;;11.30;;
74383;SDS011;62824;52.994;-3.936;2023-06-24T07:46:23;89.07;;;9.57;;
74383;SDS011;62824;52.994;-3.936;2023-06-24T07:48:52;91.90;;;9.27;;
74383;SDS011;62824;52.994;-3.936;2023-06-24T07:51:18;164.85;;;15.10;;
74383;SDS011;62824;52.994;-3.936;2023-06-24T07:53:44;227.88;;;18.08;;
74383;SDS011;62824;52.994;-3.936;2023-06-24T07:56:10;249.23;;;19.90;;
74383;SDS011;62824;52.994;-3.936;2023-06-24T07:58:35;304.92;;;22.30;;
74383;SDS011;62824;52.994;-3.936;2023-06-24T08:01:03;188.65;;;14.30;;
74383;SDS011;62824;52.994;-3.936;2023-06-24T08:03:29;206.20;;;17.05;;
74383;SDS011;62824;52.994;-3.936;2023-06-24T08:05:55;226.90;;;17.23;;
74383;SDS011;62824;52.994;-3.936;2023-06-24T08:08:21;254.75;;;18.65;;
74383;SDS011;62824;52.994;-3.936;2023-06-24T08:10:47;92.05;;;10.05;;
74383;SDS011;62824;52.994;-3.936;2023-06-24T08:13:13;77.88;;;9.05;;
74383;SDS011;62824;52.994;-3.936;2023-06-24T08:15:39;13.63;;;4.60;;
74383;SDS011;62824;52.994;-3.936;2023-06-24T08:18:05;10.77;;;4.47;;
74383;SDS011;62824;52.994;-3.936;2023-06-24T08:20:31;10.77;;;4.15;;
74383;SDS011;62824;52.994;-3.936;2023-06-24T08:22:56;6.47;;;4.30;;
74383;SDS011;62824;52.994;-3.936;2023-06-24T08:25:23;10.30;;;4.32;;
74383;SDS011;62824;52.994;-3.936;2023-06-24T08:27:48;6.30;;;3.72;;
74383;SDS011;62824;52.994;-3.936;2023-06-24T08:30:14;8.93;;;3.78;;
74383;SDS011;62824;52.994;-3.936;2023-06-24T08:32:40;6.00;;;3.35;;
74383;SDS011;62824;52.994;-3.936;2023-06-24T08:35:07;8.82;;;4.03;;
74383;SDS011;62824;52.994;-3.936;2023-06-24T08:37:35;6.72;;;4.50;;
74383;SDS011;62824;52.994;-3.936;2023-06-24T08:40:02;8.10;;;3.70;;
74383;SDS011;62824;52.994;-3.936;2023-06-24T08:42:30;12.13;;;4.47;;
74383;SDS011;62824;52.994;-3.936;2023-06-24T08:44:56;11.30;;;4.88;;
74383;SDS011;62824;52.994;-3.936;2023-06-24T08:47:23;6.03;;;3.78;;
74383;SDS011;62824;52.994;-3.936;2023-06-24T08:49:53;20.50;;;5.05;;
74383;SDS011;62824;52.994;-3.936;2023-06-24T08:52:25;86.05;;;9.98;;
74383;SDS011;62824;52.994;-3.936;2023-06-24T08:54:55;9.55;;;4.63;;
74383;SDS011;62824;52.994;-3.936;2023-06-24T08:57:25;13.02;;;4.90;;
74383;SDS011;62824;52.994;-3.936;2023-06-24T08:59:52;11.45;;;4.25;;
74383;SDS011;62824;52.994;-3.936;2023-06-24T09:02:19;11.52;;;4.82;;
74383;SDS011;62824;52.994;-3.936;2023-06-24T09:04:45;11.65;;;5.07;;
74383;SDS011;62824;52.994;-3.936;2023-06-24T09:07:14;11.18;;;4.70;;
74383;SDS011;62824;52.994;-3.936;2023-06-24T09:09:53;14.02;;;5.10;;
74383;SDS011;62824;52.994;-3.936;2023-06-24T09:12:19;12.68;;;4.95;;
74383;SDS011;62824;52.994;-3.936;2023-06-24T09:14:48;12.52;;;5.22;;
74383;SDS011;62824;52.994;-3.936;2023-06-24T09:17:15;13.32;;;5.95;;
74383;SDS011;62824;52.994;-3.936;2023-06-24T09:19:41;10.98;;;4.22;;
74383;SDS011;62824;52.994;-3.936;2023-06-24T09:22:08;7.97;;;4.10;;
74383;SDS011;62824;52.994;-3.936;2023-06-24T09:24:42;14.05;;;4.75;;
74383;SDS011;62824;52.994;-3.936;2023-06-24T09:27:12;9.93;;;4.32;;
74383;SDS011;62824;52.994;-3.936;2023-06-24T09:29:39;9.38;;;4.35;;
74383;SDS011;62824;52.994;-3.936;2023-06-24T09:32:06;9.18;;;4.65;;
74383;SDS011;62824;52.994;-3.936;2023-06-24T09:34:32;12.57;;;4.95;;
74383;SDS011;62824;52.994;-3.936;2023-06-24T09:36:59;12.52;;;4.75;;
74383;SDS011;62824;52.994;-3.936;2023-06-24T09:39:25;9.93;;;4.47;;
74383;SDS011;62824;52.994;-3.936;2023-06-24T09:41:59;11.88;;;5.20;;
74383;SDS011;62824;52.994;-3.936;2023-06-24T09:44:28;12.93;;;4.95;;
74383;SDS011;62824;52.994;-3.936;2023-06-24T09:46:54;11.93;;;4.80;;
74383;SDS011;62824;52.994;-3.936;2023-06-24T09:49:21;12.13;;;5.45;;
74383;SDS011;62824;52.994;-3.936;2023-06-24T09:51:49;11.38;;;5.05;;
74383;SDS011;62824;52.994;-3.936;2023-06-24T09:54:19;12.17;;;4.57;;
74383;SDS011;62824;52.994;-3.936;2023-06-24T09:56:50;10.70;;;3.75;;
74383;SDS011;62824;52.994;-3.936;2023-06-24T09:59:18;9.13;;;3.70;;
74383;SDS011;62824;52.994;-3.936;2023-06-24T10:01:45;9.68;;;3.63;;
74383;SDS011;62824;52.994;-3.936;2023-06-24T10:04:15;6.65;;;3.40;;
74383;SDS011;62824;52.994;-3.936;2023-06-24T10:06:42;6.38;;;3.15;;
74383;SDS011;62824;52.994;-3.936;2023-06-24T10:09:09;6.22;;;3.15;;
74383;SDS011;62824;52.994;-3.936;2023-06-24T10:11:35;5.22;;;2.78;;
74383;SDS011;62824;52.994;-3.936;2023-06-24T10:14:01;6.88;;;2.45;;
74383;SDS011;62824;52.994;-3.936;2023-06-24T10:16:28;5.47;;;2.40;;
74383;SDS011;62824;52.994;-3.936;2023-06-24T10:18:59;4.10;;;3.10;;
74383;SDS011;62824;52.994;-3.936;2023-06-24T10:24:33;7.63;;;3.08;;
74383;SDS011;62824;52.994;-3.936;2023-06-24T10:27:03;4.88;;;2.20;;
74383;SDS011;62824;52.994;-3.936;2023-06-24T10:29:33;5.07;;;2.40;;
74383;SDS011;62824;52.994;-3.936;2023-06-24T10:32:09;3.85;;;2.00;;
74383;SDS011;62824;52.994;-3.936;2023-06-24T10:34:38;5.57;;;2.90;;
74383;SDS011;62824;52.994;-3.936;2023-06-24T10:37:09;5.72;;;3.28;;
74383;SDS011;62824;52.994;-3.936;2023-06-24T10:39:37;6.43;;;2.92;;
74383;SDS011;62824;52.994;-3.936;2023-06-24T10:44:49;3.97;;;2.30;;
74383;SDS011;62824;52.994;-3.936;2023-06-24T10:47:17;6.10;;;2.95;;
74383;SDS011;62824;52.994;-3.936;2023-06-24T10:49:43;4.53;;;2.45;;
74383;SDS011;62824;52.994;-3.936;2023-06-24T11:00:39;8.27;;;3.60;;
74383;SDS011;62824;52.994;-3.936;2023-06-24T11:03:11;6.00;;;3.85;;
74383;SDS011;62824;52.994;-3.936;2023-06-24T11:05:42;7.68;;;4.10;;
74383;SDS011;62824;52.994;-3.936;2023-06-24T11:08:09;8.73;;;3.92;;
74383;SDS011;62824;52.994;-3.936;2023-06-24T11:10:45;8.15;;;4.22;;
74383;SDS011;62824;52.994;-3.936;2023-06-24T11:13:12;8.80;;;3.67;;
74383;SDS011;62824;52.994;-3.936;2023-06-24T11:15:39;10.75;;;4.75;;
74383;SDS011;62824;52.994;-3.936;2023-06-24T11:18:08;11.55;;;5.40;;
74383;SDS011;62824;52.994;-3.936;2023-06-24T11:20:53;12.88;;;5.10;;
74383;SDS011;62824;52.994;-3.936;2023-06-24T11:23:20;12.02;;;5.00;;
74383;SDS011;62824;52.994;-3.936;2023-06-24T11:25:46;14.45;;;5.47;;
74383;SDS011;62824;52.994;-3.936;2023-06-24T11:28:20;8.40;;;4.22;;
74383;SDS011;62824;52.994;-3.936;2023-06-24T11:30:46;11.32;;;4.80;;
74383;SDS011;62824;52.994;-3.936;2023-06-24T11:33:26;6.60;;;4.35;;
74383;SDS011;62824;52.994;-3.936;2023-06-24T11:35:52;8.20;;;4.30;;
74383;SDS011;62824;52.994;-3.936;2023-06-24T11:38:18;7.75;;;4.20;;
74383;SDS011;62824;52.994;-3.936;2023-06-24T11:40:47;8.10;;;3.97;;
74383;SDS011;62824;52.994;-3.936;2023-06-24T11:43:14;9.75;;;3.90;;
74383;SDS011;62824;52.994;-3.936;2023-06-24T11:45:40;10.25;;;3.80;;
74383;SDS011;62824;52.994;-3.936;2023-06-24T11:48:10;8.82;;;4.30;;
74383;SDS011;62824;52.994;-3.936;2023-06-24T11:50:36;7.15;;;3.50;;
74383;SDS011;62824;52.994;-3.936;2023-06-24T11:53:03;6.75;;;3.25;;
74383;SDS011;62824;52.994;-3.936;2023-06-24T11:55:30;9.15;;;3.60;;
74383;SDS011;62824;52.994;-3.936;2023-06-24T11:58:09;9.40;;;3.00;;
74383;SDS011;62824;52.994;-3.936;2023-06-24T12:01:00;9.02;;;2.85;;
74383;SDS011;62824;52.994;-3.936;2023-06-24T12:03:27;7.03;;;3.03;;
74383;SDS011;62824;52.994;-3.936;2023-06-24T12:05:58;6.00;;;3.15;;
74383;SDS011;62824;52.994;-3.936;2023-06-24T12:08:40;7.97;;;3.60;;
74383;SDS011;62824;52.994;-3.936;2023-06-24T12:14:48;7.90;;;2.78;;
74383;SDS011;62824;52.994;-3.936;2023-06-24T12:17:17;7.50;;;3.15;;
74383;SDS011;62824;52.994;-3.936;2023-06-24T12:19:43;8.15;;;3.00;;
74383;SDS011;62824;52.994;-3.936;2023-06-24T12:22:08;7.43;;;2.90;;
74383;SDS011;62824;52.994;-3.936;2023-06-24T12:24:34;6.43;;;2.60;;
74383;SDS011;62824;52.994;-3.936;2023-06-24T12:27:00;7.60;;;2.85;;
74383;SDS011;62824;52.994;-3.936;2023-06-24T12:29:26;6.22;;;2.63;;
74383;SDS011;62824;52.994;-3.936;2023-06-24T12:31:51;8.13;;;3.40;;
74383;SDS011;62824;52.994;-3.936;2023-06-24T12:34:17;8.50;;;2.88;;
74383;SDS011;62824;52.994;-3.936;2023-06-24T12:36:43;9.10;;;2.90;;
74383;SDS011;62824;52.994;-3.936;2023-06-24T12:39:09;12.48;;;3.25;;
74383;SDS011;62824;52.994;-3.936;2023-06-24T12:41:34;7.22;;;2.70;;
74383;SDS011;62824;52.994;-3.936;2023-06-24T12:44:00;7.03;;;2.58;;
74383;SDS011;62824;52.994;-3.936;2023-06-24T12:46:29;6.72;;;2.58;;
74383;SDS011;62824;52.994;-3.936;2023-06-24T12:48:55;5.85;;;2.95;;
74383;SDS011;62824;52.994;-3.936;2023-06-24T12:51:21;7.15;;;2.38;;
74383;SDS011;62824;52.994;-3.936;2023-06-24T12:53:47;4.35;;;2.72;;
74383;SDS011;62824;52.994;-3.936;2023-06-24T12:56:13;4.43;;;2.17;;
74383;SDS011;62824;52.994;-3.936;2023-06-24T12:58:39;4.20;;;2.50;;
74383;SDS011;62824;52.994;-3.936;2023-06-24T13:01:05;5.18;;;3.50;;
74383;SDS011;62824;52.994;-3.936;2023-06-24T13:03:31;6.75;;;2.65;;
74383;SDS011;62824;52.994;-3.936;2023-06-24T13:05:56;4.88;;;2.28;;
74383;SDS011;62824;52.994;-3.936;2023-06-24T13:08:22;8.70;;;2.50;;
74383;SDS011;62824;52.994;-3.936;2023-06-24T13:10:48;5.30;;;2.67;;
74383;SDS011;62824;52.994;-3.936;2023-06-24T13:13:14;5.97;;;2.42;;
74383;SDS011;62824;52.994;-3.936;2023-06-24T13:15:40;4.78;;;2.28;;
74383;SDS011;62824;52.994;-3.936;2023-06-24T13:18:06;6.75;;;2.50;;
74383;SDS011;62824;52.994;-3.936;2023-06-24T13:20:34;7.43;;;2.67;;
74383;SDS011;62824;52.994;-3.936;2023-06-24T13:23:00;5.90;;;2.70;;
74383;SDS011;62824;52.994;-3.936;2023-06-24T13:25:25;7.00;;;3.10;;
74383;SDS011;62824;52.994;-3.936;2023-06-24T13:27:51;5.97;;;2.80;;
74383;SDS011;62824;52.994;-3.936;2023-06-24T13:30:17;5.35;;;2.95;;
74383;SDS011;62824;52.994;-3.936;2023-06-24T13:32:43;7.65;;;3.15;;
74383;SDS011;62824;52.994;-3.936;2023-06-24T13:35:10;7.25;;;3.20;;
74383;SDS011;62824;52.994;-3.936;2023-06-24T13:37:37;7.22;;;2.90;;
74383;SDS011;62824;52.994;-3.936;2023-06-24T13:40:04;5.47;;;3.38;;
74383;SDS011;62824;52.994;-3.936;2023-06-24T13:42:30;6.18;;;3.15;;
74383;SDS011;62824;52.994;-3.936;2023-06-24T13:44:56;6.07;;;3.00;;
74383;SDS011;62824;52.994;-3.936;2023-06-24T13:47:22;7.88;;;3.40;;
74383;SDS011;62824;52.994;-3.936;2023-06-24T13:49:48;10.00;;;3.60;;
74383;SDS011;62824;52.994;-3.936;2023-06-24T13:52:13;8.98;;;3.42;;
74383;SDS011;62824;52.994;-3.936;2023-06-24T13:54:39;6.20;;;3.25;;
74383;SDS011;62824;52.994;-3.936;2023-06-24T13:57:05;7.95;;;3.40;;
74383;SDS011;62824;52.994;-3.936;2023-06-24T13:59:31;8.18;;;3.40;;
74383;SDS011;62824;52.994;-3.936;2023-06-24T14:01:57;5.95;;;3.20;;
74383;SDS011;62824;52.994;-3.936;2023-06-24T14:04:23;7.95;;;3.45;;
74383;SDS011;62824;52.994;-3.936;2023-06-24T14:06:49;8.65;;;3.25;;
74383;SDS011;62824;52.994;-3.936;2023-06-24T14:09:15;4.70;;;2.80;;
74383;SDS011;62824;52.994;-3.936;2023-06-24T14:11:41;5.57;;;2.65;;
74383;SDS011;62824;52.994;-3.936;2023-06-24T14:14:06;7.15;;;2.83;;
74383;SDS011;62824;52.994;-3.936;2023-06-24T14:16:32;7.95;;;4.22;;
74383;SDS011;62824;52.994;-3.936;2023-06-24T14:18:58;5.97;;;2.85;;
74383;SDS011;62824;52.994;-3.936;2023-06-24T14:24:46;6.05;;;3.10;;
74383;SDS011;62824;52.994;-3.936;2023-06-24T14:27:11;8.25;;;3.53;;
74383;SDS011;62824;52.994;-3.936;2023-06-24T14:29:37;8.15;;;3.00;;
74383;SDS011;62824;52.994;-3.936;2023-06-24T14:32:03;5.13;;;2.95;;
74383;SDS011;62824;52.994;-3.936;2023-06-24T14:34:29;5.10;;;2.80;;
74383;SDS011;62824;52.994;-3.936;2023-06-24T14:36:55;6.97;;;3.28;;
74383;SDS011;62824;52.994;-3.936;2023-06-24T14:39:21;9.80;;;5.60;;
74383;SDS011;62824;52.994;-3.936;2023-06-24T14:41:47;11.20;;;4.03;;
74383;SDS011;62824;52.994;-3.936;2023-06-24T14:44:13;8.45;;;4.55;;
74383;SDS011;62824;52.994;-3.936;2023-06-24T14:46:38;9.75;;;3.70;;
74383;SDS011;62824;52.994;-3.936;2023-06-24T14:49:04;6.63;;;3.60;;
74383;SDS011;62824;52.994;-3.936;2023-06-24T14:51:30;6.50;;;3.70;;
74383;SDS011;62824;52.994;-3.936;2023-06-24T14:53:56;8.43;;;3.95;;
74383;SDS011;62824;52.994;-3.936;2023-06-24T14:56:21;10.90;;;4.78;;
74383;SDS011;62824;52.994;-3.936;2023-06-24T14:58:51;5.13;;;3.38;;
74383;SDS011;62824;52.994;-3.936;2023-06-24T15:01:19;7.55;;;3.42;;
74383;SDS011;62824;52.994;-3.936;2023-06-24T15:03:45;8.43;;;3.33;;